Time;durP1;ratioP1;P1;durP2;ratioP2;P2;SDS_P1;SDS_P2;PMS_P1;PMS_P2;Temp;Humidity;BMP_temperature;BMP_pressure;BME280_temperature;BME280_humidity;BME280_pressure;Samples;Min_cycle;Max_cycle;Signal;HPM_P1;HPM_P2
2022/11/27 00:00:09;;;;;;;7.20;2.58;;;23.90;99.90;;;;;;5033694;28;20194;-77
2022/11/27 00:02:40;;;;;;;8.48;2.72;;;23.90;99.90;;;;;;5032290;28;20639;-77
2022/11/27 00:05:11;;;;;;;4.55;2.03;;;23.90;99.90;;;;;;5028884;28;20189;-77
2022/11/27 00:07:43;;;;;;;5.18;1.95;;;24.00;99.90;;;;;;5028648;28;20585;-77
2022/11/27 00:10:15;;;;;;;4.13;1.88;;;24.00;99.90;;;;;;5033361;28;20210;-79
2022/11/27 00:12:49;;;;;;;5.80;2.33;;;24.00;99.90;;;;;;5029746;28;20276;-77
2022/11/27 00:15:20;;;;;;;3.80;1.98;;;24.10;99.90;;;;;;5027194;28;20225;-77
2022/11/27 00:18:06;;;;;;;4.70;1.85;;;24.10;99.90;;;;;;5027794;28;20245;-79
2022/11/27 00:20:37;;;;;;;5.93;2.08;;;24.20;99.90;;;;;;5026771;28;20200;-78
2022/11/27 00:23:09;;;;;;;5.43;1.80;;;24.30;99.90;;;;;;5024471;28;20687;-77
2022/11/27 00:25:41;;;;;;;4.18;1.83;;;24.40;99.90;;;;;;5025342;28;20205;-78
2022/11/27 00:28:14;;;;;;;5.05;1.88;;;24.50;99.90;;;;;;5026434;28;20294;-79
2022/11/27 00:30:47;;;;;;;3.70;1.90;;;24.60;99.90;;;;;;5028795;28;20273;-78
2022/11/27 00:33:18;;;;;;;7.63;1.90;;;24.60;99.90;;;;;;5021751;28;20248;-79
2022/11/27 00:35:50;;;;;;;5.90;1.92;;;24.60;99.90;;;;;;5022164;28;20289;-77
2022/11/27 00:38:21;;;;;;;5.65;2.05;;;24.60;99.90;;;;;;5016231;28;20567;-78
2022/11/27 00:40:53;;;;;;;4.88;2.03;;;24.50;99.90;;;;;;5019299;28;20236;-78
2022/11/27 00:43:27;;;;;;;10.93;2.58;;;24.50;99.90;;;;;;5016282;28;20596;-78
2022/11/27 00:46:00;;;;;;;4.38;1.90;;;24.50;99.90;;;;;;5013971;28;20193;-77
2022/11/27 00:48:31;;;;;;;4.18;2.20;;;24.40;99.90;;;;;;5014439;28;20236;-80
2022/11/27 00:51:03;;;;;;;4.47;2.10;;;24.40;99.90;;;;;;5020277;28;20575;-77
2022/11/27 00:53:35;;;;;;;4.13;2.10;;;24.40;99.90;;;;;;5026646;28;20277;-78
2022/11/27 00:56:06;;;;;;;5.50;2.08;;;24.40;99.90;;;;;;5025655;28;20574;-76
2022/11/27 00:58:41;;;;;;;4.72;1.90;;;24.50;99.90;;;;;;5026877;28;20298;-78
2022/11/27 01:01:18;;;;;;;4.10;1.85;;;24.70;99.90;;;;;;5023016;28;20284;-78
2022/11/27 01:03:51;;;;;;;6.03;1.98;;;24.90;99.90;;;;;;5024455;28;20562;-78
2022/11/27 01:06:23;;;;;;;4.90;2.20;;;25.20;99.90;;;;;;5022135;28;20539;-77
2022/11/27 01:08:54;;;;;;;4.50;2.08;;;25.50;99.90;;;;;;5025166;28;20280;-77
2022/11/27 01:11:26;;;;;;;4.63;1.90;;;25.60;99.90;;;;;;5021284;28;20203;-76
2022/11/27 01:14:03;;;;;;;6.72;2.10;;;25.70;99.90;;;;;;5012405;28;20202;-76
2022/11/27 01:16:36;;;;;;;5.13;2.00;;;25.80;99.90;;;;;;5014127;28;20202;-78
2022/11/27 01:19:08;;;;;;;5.10;2.10;;;25.90;99.90;;;;;;5017410;28;20221;-78
2022/11/27 01:21:40;;;;;;;8.82;2.20;;;26.00;99.90;;;;;;5021883;28;20202;-78
2022/11/27 01:24:13;;;;;;;5.47;1.80;;;25.90;99.90;;;;;;5022475;28;20198;-77
2022/11/27 01:26:47;;;;;;;4.10;1.98;;;26.00;99.90;;;;;;5023153;28;20222;-77
2022/11/27 01:29:20;;;;;;;6.13;2.05;;;26.00;99.90;;;;;;5014788;28;20202;-77
2022/11/27 01:31:52;;;;;;;6.10;1.95;;;25.90;99.90;;;;;;5020340;28;20201;-77
2022/11/27 01:34:25;;;;;;;5.20;2.00;;;25.90;99.90;;;;;;5021720;28;20205;-77
2022/11/27 01:36:56;;;;;;;3.85;2.22;;;25.90;99.90;;;;;;5025406;28;20708;-78
2022/11/27 01:39:29;;;;;;;4.05;2.03;;;26.00;99.90;;;;;;5031427;28;20309;-77
2022/11/27 01:42:00;;;;;;;3.63;1.75;;;26.10;99.90;;;;;;5025295;28;20198;-77
2022/11/27 01:45:08;;;;;;;5.88;2.20;;;26.20;99.90;;;;;;5022126;28;20199;-77
2022/11/27 01:47:47;;;;;;;8.07;2.20;;;26.30;99.90;;;;;;5029318;28;20205;-77
2022/11/27 01:50:24;;;;;;;5.78;1.85;;;26.40;99.90;;;;;;5027112;28;20670;-77
2022/11/27 01:52:57;;;;;;;5.50;2.10;;;26.50;99.90;;;;;;5027147;28;20201;-77
2022/11/27 01:55:34;;;;;;;4.85;2.10;;;26.70;99.90;;;;;;5026152;28;20324;-76
2022/11/27 01:58:10;;;;;;;5.90;1.90;;;26.90;99.90;;;;;;5027996;28;20206;-77
2022/11/27 02:00:44;;;;;;;3.80;1.98;;;27.10;99.90;;;;;;5028863;28;20285;-77
2022/11/27 02:03:16;;;;;;;4.80;2.30;;;27.20;99.90;;;;;;5027471;28;20276;-79
2022/11/27 02:05:47;;;;;;;3.70;1.90;;;27.20;99.90;;;;;;5024572;28;20237;-78
2022/11/27 02:08:20;;;;;;;3.42;2.00;;;27.20;99.90;;;;;;5024507;28;21562;-79
2022/11/27 02:10:54;;;;;;;4.63;2.05;;;27.60;99.90;;;;;;5021406;28;20228;-79
2022/11/27 02:13:32;;;;;;;3.58;2.05;;;27.90;99.90;;;;;;5020452;28;21872;-78
2022/11/27 02:16:14;;;;;;;5.07;1.98;;;28.00;99.90;;;;;;5021418;28;20756;-77
2022/11/27 02:19:00;;;;;;;7.68;2.22;;;28.00;99.90;;;;;;5026465;28;20234;-79
2022/11/27 02:21:39;;;;;;;3.65;1.90;;;28.20;99.90;;;;;;5019331;28;20199;-77
2022/11/27 02:24:33;;;;;;;5.28;2.33;;;28.40;99.90;;;;;;5019232;28;20204;-78
2022/11/27 08:16:26;;;;;;;7.35;2.53;;;23.90;99.90;;;;;;5135046;27;20507;-75
2022/11/27 08:18:57;;;;;;;4.28;2.60;;;24.00;99.90;;;;;;5126469;27;20281;-77
2022/11/27 08:21:29;;;;;;;3.65;1.80;;;24.10;99.90;;;;;;5130386;28;20238;-80
2022/11/27 08:24:00;;;;;;;2.75;1.42;;;24.30;99.90;;;;;;5130771;27;20271;-80
2022/11/27 08:26:31;;;;;;;5.00;1.20;;;24.50;99.90;;;;;;5126096;27;20250;-81
2022/11/27 08:29:03;;;;;;;3.17;1.30;;;24.60;99.90;;;;;;5124540;28;20199;-83
2022/11/27 08:31:37;;;;;;;3.72;1.42;;;24.50;99.90;;;;;;5125542;28;20251;-81
2022/11/27 08:34:08;;;;;;;3.30;1.27;;;24.20;99.90;;;;;;5129486;27;20195;-81
2022/11/27 08:36:39;;;;;;;1.92;1.27;;;23.90;99.90;;;;;;5129429;27;20278;-78
2022/11/27 08:39:11;;;;;;;2.95;1.15;;;23.60;99.90;;;;;;5129514;27;20279;-81
2022/11/27 08:41:44;;;;;;;2.05;1.20;;;23.40;99.90;;;;;;5124385;28;20191;-80
2022/11/27 08:44:15;;;;;;;7.03;1.02;;;23.30;99.90;;;;;;5107454;28;20280;-76
2022/11/27 08:46:50;;;;;;;3.85;1.08;;;23.20;99.90;;;;;;5116999;28;20210;-74
2022/11/27 08:49:21;;;;;;;3.63;1.17;;;23.00;99.90;;;;;;5111230;28;20191;-78
2022/11/27 08:51:52;;;;;;;4.35;1.10;;;22.90;99.90;;;;;;5102353;28;20245;-73
2022/11/27 08:54:23;;;;;;;2.10;1.10;;;22.60;99.90;;;;;;5115843;27;20231;-74
2022/11/27 08:56:56;;;;;;;1.73;1.02;;;22.40;99.90;;;;;;5117714;28;20199;-74
2022/11/27 08:59:27;;;;;;;5.13;1.17;;;22.20;99.90;;;;;;5099287;28;20278;-75
2022/11/27 09:02:01;;;;;;;4.05;1.05;;;22.10;99.90;;;;;;5113577;28;20561;-74
2022/11/27 09:04:33;;;;;;;3.10;1.30;;;22.00;99.90;;;;;;5120179;28;20208;-73
2022/11/27 09:07:04;;;;;;;1.42;1.30;;;22.00;99.90;;;;;;5121394;28;20203;-74
2022/11/27 09:09:35;;;;;;;3.10;1.20;;;21.90;99.90;;;;;;5116671;27;20199;-74
2022/11/27 09:12:06;;;;;;;3.88;1.40;;;21.90;99.90;;;;;;5121820;28;20226;-74
2022/11/27 09:14:38;;;;;;;5.32;1.50;;;21.90;99.90;;;;;;5117649;27;20584;-75
2022/11/27 09:17:11;;;;;;;2.72;1.33;;;21.80;99.90;;;;;;5109288;27;20315;-74
2022/11/27 09:19:43;;;;;;;3.42;1.20;;;21.70;99.90;;;;;;5109913;28;20280;-74
2022/11/27 09:22:14;;;;;;;1.92;1.20;;;21.60;99.90;;;;;;5106927;28;20224;-74
2022/11/27 09:24:45;;;;;;;4.05;1.50;;;21.60;99.90;;;;;;5116622;28;20187;-74
2022/11/27 09:27:16;;;;;;;3.13;1.50;;;21.60;99.90;;;;;;5104239;27;20184;-74
2022/11/27 09:29:48;;;;;;;3.40;1.50;;;21.50;99.90;;;;;;5095111;28;20200;-74
2022/11/27 09:32:24;;;;;;;3.83;1.50;;;21.40;99.90;;;;;;5098956;28;20199;-74
2022/11/27 09:34:55;;;;;;;2.97;1.80;;;21.30;99.90;;;;;;5104414;28;20223;-75
2022/11/27 09:37:26;;;;;;;2.90;1.70;;;21.20;99.90;;;;;;5100930;28;20209;-75
2022/11/27 09:39:58;;;;;;;3.92;1.70;;;21.20;99.90;;;;;;5099686;27;20220;-77
2022/11/27 09:42:43;;;;;;;2.75;1.50;;;21.20;99.90;;;;;;5099835;28;20257;-78
2022/11/27 09:45:17;;;;;;;3.50;1.77;;;21.20;99.90;;;;;;5096348;28;20271;-76
2022/11/27 09:47:55;;;;;;;2.90;1.50;;;21.20;99.90;;;;;;5100207;28;20188;-76
2022/11/27 09:50:28;;;;;;;2.75;1.50;;;21.20;99.90;;;;;;5102937;28;20204;-79
2022/11/27 09:53:03;;;;;;;3.53;1.48;;;21.20;99.90;;;;;;5103662;28;20193;-76
2022/11/27 09:55:40;;;;;;;3.25;1.40;;;21.20;99.90;;;;;;5099991;28;20344;-78
2022/11/27 09:58:18;;;;;;;2.42;1.33;;;21.20;99.90;;;;;;5095611;28;20192;-78
2022/11/27 10:00:49;;;;;;;2.42;1.27;;;21.20;99.90;;;;;;5102585;28;20191;-80
2022/11/27 10:03:27;;;;;;;3.10;1.35;;;21.10;99.90;;;;;;5102956;28;20206;-81
2022/11/27 10:06:07;;;;;;;5.57;1.30;;;21.10;99.90;;;;;;5093734;28;20278;-78
2022/11/27 10:08:45;;;;;;;3.85;1.50;;;21.10;99.90;;;;;;5100414;28;20209;-77
2022/11/27 10:11:28;;;;;;;3.67;1.33;;;21.10;99.90;;;;;;5115417;27;20618;-77
2022/11/27 10:14:24;;;;;;;3.80;1.50;;;21.20;99.90;;;;;;5097144;28;20187;-79
2022/11/27 10:17:01;;;;;;;3.22;1.50;;;21.20;99.90;;;;;;5094696;28;20236;-83
2022/11/27 10:19:45;;;;;;;3.05;1.80;;;21.20;99.90;;;;;;5102793;28;20559;-80
2022/11/27 10:22:24;;;;;;;3.75;1.90;;;21.20;99.90;;;;;;5110261;28;20238;-81
2022/11/27 10:25:11;;;;;;;2.50;1.90;;;21.20;99.90;;;;;;5088774;28;20192;-81
2022/11/27 10:27:50;;;;;;;3.20;1.83;;;21.30;99.90;;;;;;5094219;28;20383;-75
2022/11/27 10:30:23;;;;;;;3.47;2.05;;;21.20;99.90;;;;;;5080811;28;20282;-76
2022/11/27 10:32:57;;;;;;;7.57;2.35;;;21.20;99.90;;;;;;5095146;28;20270;-76
2022/11/27 10:35:33;;;;;;;5.63;2.10;;;21.20;99.90;;;;;;5092099;28;20789;-74
2022/11/27 10:38:11;;;;;;;3.95;1.70;;;21.20;99.90;;;;;;5105890;28;20280;-74
2022/11/27 10:40:45;;;;;;;3.60;1.90;;;21.00;99.90;;;;;;5096375;28;20192;-74
2022/11/27 10:43:23;;;;;;;4.00;1.70;;;20.90;99.90;;;;;;5097166;28;20224;-75
2022/11/27 10:45:57;;;;;;;2.55;1.58;;;20.80;99.90;;;;;;5105712;28;20579;-75
2022/11/27 10:48:28;;;;;;;3.42;1.38;;;20.80;99.90;;;;;;5096582;28;20206;-76
2022/11/27 10:51:01;;;;;;;5.82;1.55;;;20.60;99.90;;;;;;5102077;28;20639;-77
2022/11/27 10:53:34;;;;;;;3.92;1.50;;;20.60;99.90;;;;;;5094089;28;20283;-76
2022/11/27 10:56:31;;;;;;;4.38;1.63;;;20.60;99.90;;;;;;5097143;28;20231;-76
2022/11/27 10:59:05;;;;;;;3.70;1.50;;;20.60;99.90;;;;;;5102325;28;20203;-76
2022/11/27 11:01:45;;;;;;;2.75;1.50;;;20.50;99.90;;;;;;5091590;28;20196;-75
2022/11/27 11:04:17;;;;;;;4.10;1.67;;;20.50;99.90;;;;;;5099782;28;20275;-75
2022/11/27 11:06:51;;;;;;;3.10;1.50;;;20.40;99.90;;;;;;5092636;28;20287;-76
2022/11/27 11:09:24;;;;;;;4.82;1.60;;;20.40;99.90;;;;;;5096761;28;20192;-75
2022/11/27 11:11:55;;;;;;;3.63;1.73;;;20.40;99.90;;;;;;5094299;28;20192;-76
2022/11/27 11:14:27;;;;;;;4.22;1.52;;;20.40;99.90;;;;;;5102563;28;20227;-75
2022/11/27 11:17:00;;;;;;;3.10;1.60;;;20.30;99.90;;;;;;5104728;28;20243;-75
2022/11/27 11:19:37;;;;;;;5.45;2.17;;;20.40;99.90;;;;;;5114426;28;20190;-76
2022/11/27 11:22:20;;;;;;;5.25;1.85;;;20.30;99.90;;;;;;5098492;28;20210;-75
2022/11/27 11:24:51;;;;;;;3.47;1.23;;;20.30;99.90;;;;;;5098643;28;20194;-75
2022/11/27 11:27:24;;;;;;;3.60;1.60;;;20.20;99.90;;;;;;5089997;28;20644;-80
2022/11/27 11:29:57;;;;;;;3.60;1.30;;;20.20;99.90;;;;;;5093006;28;20196;-77
2022/11/27 11:32:30;;;;;;;2.65;1.20;;;20.10;99.90;;;;;;5094735;28;20180;-75
2022/11/27 11:35:03;;;;;;;3.38;1.40;;;20.20;99.90;;;;;;5095490;28;20188;-76
2022/11/27 11:37:37;;;;;;;3.40;1.30;;;20.20;99.90;;;;;;5088316;28;20181;-75
2022/11/27 11:40:10;;;;;;;3.83;1.20;;;20.20;99.90;;;;;;5094384;28;20287;-76
2022/11/27 11:42:53;;;;;;;3.97;1.38;;;20.20;99.90;;;;;;5100822;28;20223;-75
2022/11/27 11:45:25;;;;;;;4.07;1.20;;;20.20;99.90;;;;;;5093513;28;20191;-76
2022/11/27 11:47:57;;;;;;;2.15;1.27;;;20.20;99.90;;;;;;5093337;28;20184;-77
2022/11/27 11:50:34;;;;;;;2.50;1.08;;;20.20;99.90;;;;;;5100633;28;20553;-77
2022/11/27 11:53:16;;;;;;;3.38;1.25;;;20.20;99.90;;;;;;5084129;28;20271;-75
2022/11/27 11:55:59;;;;;;;1.90;1.10;;;20.10;99.90;;;;;;5094543;28;20293;-76
2022/11/27 11:58:46;;;;;;;4.40;1.10;;;20.10;99.90;;;;;;5093454;27;20411;-75
2022/11/27 12:01:37;;;;;;;1.30;0.70;;;19.90;99.90;;;;;;5093048;28;20191;-75
2022/11/27 12:04:28;;;;;;;2.05;0.75;;;19.90;99.90;;;;;;5108886;28;20195;-77
2022/11/27 12:07:05;;;;;;;1.35;0.60;;;19.80;99.90;;;;;;5089916;28;20200;-76
2022/11/27 12:09:53;;;;;;;1.98;0.57;;;19.80;99.90;;;;;;5103205;28;20280;-77
2022/11/27 12:12:34;;;;;;;3.42;0.70;;;19.70;99.90;;;;;;5104923;28;20685;-76
2022/11/27 12:15:09;;;;;;;1.52;0.68;;;19.70;99.90;;;;;;5085326;28;20229;-76
2022/11/27 12:17:55;;;;;;;3.50;1.05;;;19.60;99.90;;;;;;5100648;28;20227;-77
2022/11/27 12:20:35;;;;;;;1.77;0.88;;;19.60;99.90;;;;;;5093187;28;20210;-75
2022/11/27 12:23:50;;;;;;;1.55;0.98;;;19.60;99.90;;;;;;5094447;28;20185;-76
2022/11/27 12:26:35;;;;;;;3.83;1.30;;;19.50;99.90;;;;;;5082611;28;20200;-76
2022/11/27 12:29:29;;;;;;;3.65;1.20;;;19.50;99.90;;;;;;5086738;28;20295;-75
2022/11/27 12:32:18;;;;;;;8.25;1.60;;;19.50;99.90;;;;;;5098311;28;20187;-76
2022/11/27 12:35:05;;;;;;;9.90;2.10;;;19.50;99.90;;;;;;5101305;28;20204;-75
2022/11/27 12:37:48;;;;;;;14.32;2.70;;;19.40;99.90;;;;;;5093012;28;20214;-75
2022/11/27 12:40:38;;;;;;;12.50;2.78;;;19.40;99.90;;;;;;5097852;28;20270;-77
2022/11/27 12:43:25;;;;;;;13.02;3.22;;;19.30;99.90;;;;;;5092559;28;20216;-76
2022/11/27 12:46:03;;;;;;;14.40;3.05;;;19.30;99.90;;;;;;5093333;28;20184;-77
2022/11/27 12:48:38;;;;;;;19.48;3.95;;;19.30;99.90;;;;;;5084869;28;20288;-76
2022/11/27 12:51:13;;;;;;;26.38;3.63;;;19.20;99.90;;;;;;5095301;28;20735;-76
2022/11/27 12:53:48;;;;;;;21.13;3.70;;;19.10;99.90;;;;;;5094971;28;20290;-75
2022/11/27 12:56:27;;;;;;;20.25;4.07;;;19.10;99.90;;;;;;5092552;28;20211;-74
2022/11/27 12:59:13;;;;;;;15.45;3.13;;;19.00;99.90;;;;;;5095222;28;20271;-73
2022/11/27 13:01:50;;;;;;;20.23;3.90;;;18.90;99.90;;;;;;5104482;28;20195;-74
2022/11/27 13:04:26;;;;;;;17.42;3.60;;;18.90;99.90;;;;;;5099509;28;20196;-75
2022/11/27 13:07:04;;;;;;;21.52;4.28;;;18.90;99.90;;;;;;5095963;28;20188;-74
2022/11/27 13:09:43;;;;;;;17.30;3.22;;;18.80;99.90;;;;;;5104518;28;20188;-76
2022/11/27 13:12:20;;;;;;;20.00;3.88;;;18.80;99.90;;;;;;5086989;28;20194;-75
2022/11/27 13:15:01;;;;;;;24.17;3.55;;;18.80;99.90;;;;;;5096593;28;20228;-75
2022/11/27 13:17:41;;;;;;;18.95;4.13;;;18.80;99.90;;;;;;5104733;28;20705;-75
2022/11/27 13:20:18;;;;;;;17.35;3.35;;;18.70;99.90;;;;;;5112163;28;20197;-77
2022/11/27 13:22:49;;;;;;;22.90;3.65;;;18.70;99.90;;;;;;5107611;28;20184;-77
2022/11/27 13:25:20;;;;;;;21.48;3.58;;;18.60;99.90;;;;;;5096527;28;20192;-76
2022/11/27 13:27:54;;;;;;;14.40;3.20;;;18.70;99.90;;;;;;5096343;28;20189;-78
2022/11/27 13:30:29;;;;;;;19.60;3.78;;;18.60;99.90;;;;;;5088954;28;20271;-76
2022/11/27 13:33:02;;;;;;;25.83;3.40;;;18.60;99.90;;;;;;5098558;28;20183;-74
2022/11/27 13:35:40;;;;;;;23.83;3.70;;;18.60;99.90;;;;;;5096061;28;20188;-72
2022/11/27 13:38:14;;;;;;;19.83;3.65;;;18.50;99.90;;;;;;5107948;28;20202;-77
2022/11/27 13:40:48;;;;;;;15.90;3.22;;;18.50;99.90;;;;;;5101357;28;20220;-72
2022/11/27 13:43:28;;;;;;;25.13;3.63;;;18.50;99.90;;;;;;5087963;28;20303;-74
2022/11/27 13:46:11;;;;;;;17.73;2.97;;;18.40;99.90;;;;;;5100422;28;20184;-73
2022/11/27 13:48:48;;;;;;;14.40;2.95;;;18.40;99.90;;;;;;5093247;28;20588;-72
2022/11/27 13:51:27;;;;;;;19.73;2.88;;;18.40;99.90;;;;;;5102582;28;20196;-72
2022/11/27 13:54:10;;;;;;;18.88;3.33;;;18.40;99.90;;;;;;5099170;28;20214;-74
2022/11/27 13:56:42;;;;;;;19.80;3.42;;;18.30;99.90;;;;;;5103219;28;20638;-74
2022/11/27 13:59:21;;;;;;;21.20;2.95;;;18.30;99.90;;;;;;5103056;28;20219;-77
2022/11/27 14:02:05;;;;;;;15.20;2.90;;;18.20;99.90;;;;;;5093096;28;20198;-73
2022/11/27 14:04:36;;;;;;;17.65;2.80;;;18.20;99.90;;;;;;5099150;28;20333;-72
2022/11/27 14:07:10;;;;;;;16.55;3.00;;;18.20;99.90;;;;;;5099566;28;20196;-75
2022/11/27 14:09:43;;;;;;;15.40;2.80;;;18.20;99.90;;;;;;5104972;28;20187;-74
2022/11/27 14:12:25;;;;;;;25.05;2.80;;;18.10;99.90;;;;;;5094982;28;20298;-73
2022/11/27 14:15:08;;;;;;;19.67;2.47;;;18.20;99.90;;;;;;5099237;28;20227;-76
2022/11/27 14:17:44;;;;;;;18.05;2.60;;;18.10;99.90;;;;;;5102755;28;20285;-74
2022/11/27 14:20:32;;;;;;;17.33;2.65;;;18.10;99.90;;;;;;5094967;28;20198;-74
2022/11/27 14:23:03;;;;;;;18.00;2.67;;;18.10;99.90;;;;;;5103072;28;20295;-74
2022/11/27 14:25:36;;;;;;;22.30;2.85;;;18.20;99.90;;;;;;5094674;28;20188;-78
2022/11/27 14:28:16;;;;;;;19.15;2.95;;;18.20;99.90;;;;;;5101630;28;20594;-77
2022/11/27 14:30:50;;;;;;;15.57;2.58;;;18.10;99.90;;;;;;5108896;28;20293;-74
2022/11/27 14:33:25;;;;;;;15.98;3.13;;;18.10;99.90;;;;;;5095095;28;20188;-77
2022/11/27 14:35:57;;;;;;;15.77;2.53;;;18.10;99.90;;;;;;5098649;28;20194;-76
2022/11/27 14:38:29;;;;;;;19.92;2.63;;;18.00;99.90;;;;;;5101969;28;20189;-75
2022/11/27 14:41:11;;;;;;;13.98;2.55;;;18.00;99.90;;;;;;5094573;28;20545;-79
2022/11/27 14:43:42;;;;;;;16.60;2.55;;;18.00;99.90;;;;;;5102220;28;20215;-74
2022/11/27 14:46:19;;;;;;;13.63;2.35;;;18.10;99.90;;;;;;5099489;28;20184;-74
2022/11/27 14:48:55;;;;;;;15.68;2.30;;;18.00;99.90;;;;;;5086911;28;20207;-77
2022/11/27 14:51:28;;;;;;;14.80;2.33;;;18.10;99.90;;;;;;5094442;28;20199;-77
2022/11/27 14:54:02;;;;;;;17.73;2.58;;;18.00;99.90;;;;;;5086418;28;20180;-79
2022/11/27 14:56:36;;;;;;;23.33;2.85;;;18.00;99.90;;;;;;5102149;28;20670;-79
2022/11/27 14:59:07;;;;;;;15.35;2.30;;;18.00;99.90;;;;;;5099704;28;20187;-76
2022/11/27 15:01:39;;;;;;;13.30;2.30;;;18.00;99.90;;;;;;5087885;27;20218;-75
2022/11/27 15:04:35;;;;;;;17.20;2.95;;;18.00;99.90;;;;;;5106641;28;20191;-78
2022/11/27 15:07:13;;;;;;;13.63;2.67;;;18.00;99.90;;;;;;5102036;28;20181;-76
2022/11/27 15:09:47;;;;;;;18.15;2.50;;;18.00;99.90;;;;;;5089821;28;20671;-77
2022/11/27 15:12:20;;;;;;;17.80;2.60;;;18.00;99.90;;;;;;5100525;28;20271;-76
2022/11/27 15:14:58;;;;;;;10.95;2.35;;;18.00;99.90;;;;;;5098958;28;20655;-76
2022/11/27 15:17:30;;;;;;;10.77;2.17;;;18.00;99.90;;;;;;5099683;28;20297;-77
2022/11/27 15:20:04;;;;;;;15.43;2.30;;;18.00;99.90;;;;;;5094578;28;20188;-77
2022/11/27 15:22:37;;;;;;;20.73;2.90;;;18.00;99.90;;;;;;5094167;28;20192;-77
2022/11/27 15:25:09;;;;;;;16.38;2.58;;;18.00;99.90;;;;;;5100974;28;20196;-75
2022/11/27 15:27:49;;;;;;;18.02;2.92;;;18.00;99.90;;;;;;5093663;28;20196;-79
2022/11/27 15:30:21;;;;;;;12.77;2.97;;;18.00;99.90;;;;;;5089591;28;20198;-77
2022/11/27 15:32:54;;;;;;;14.70;2.58;;;18.00;99.90;;;;;;5093049;28;20569;-77
2022/11/27 15:35:43;;;;;;;15.63;2.47;;;18.00;99.90;;;;;;5098427;28;20224;-78
2022/11/27 15:38:19;;;;;;;16.75;2.53;;;18.00;99.90;;;;;;5101491;28;20216;-79
2022/11/27 15:41:00;;;;;;;15.43;2.22;;;18.00;99.90;;;;;;5092756;28;20187;-79
2022/11/27 15:43:31;;;;;;;14.80;1.98;;;18.00;99.90;;;;;;5099412;28;20192;-77
2022/11/27 15:46:07;;;;;;;16.52;2.92;;;18.00;99.90;;;;;;5092929;28;20192;-80
2022/11/27 15:48:37;;;;;;;14.85;2.45;;;18.00;99.90;;;;;;5091780;28;20241;-78
2022/11/27 15:51:10;;;;;;;14.80;2.20;;;18.00;99.90;;;;;;5101388;28;20212;-77
2022/11/27 15:53:41;;;;;;;13.52;2.58;;;17.90;99.90;;;;;;5099571;28;20646;-76
2022/11/27 15:56:12;;;;;;;13.73;2.15;;;18.00;99.90;;;;;;5094302;28;20206;-78
2022/11/27 15:58:43;;;;;;;12.93;2.70;;;17.90;99.90;;;;;;5095952;28;20202;-78
2022/11/27 16:01:14;;;;;;;11.93;2.17;;;17.90;99.90;;;;;;5094360;28;20192;-76
2022/11/27 16:03:46;;;;;;;12.02;2.08;;;17.80;99.90;;;;;;5103162;28;20196;-76
2022/11/27 16:06:22;;;;;;;12.05;2.05;;;17.80;99.90;;;;;;5104598;28;20199;-76
2022/11/27 16:08:57;;;;;;;10.20;2.25;;;17.80;99.90;;;;;;5113233;28;20606;-77
2022/11/27 16:11:31;;;;;;;13.68;2.15;;;17.80;99.90;;;;;;5104077;28;20197;-78
2022/11/27 16:14:02;;;;;;;15.40;2.47;;;17.80;99.90;;;;;;5103844;28;20562;-77
2022/11/27 16:16:33;;;;;;;11.23;2.40;;;17.80;99.90;;;;;;5101524;28;20314;-78
2022/11/27 16:19:06;;;;;;;12.43;1.92;;;17.80;99.90;;;;;;5094543;28;20222;-75
2022/11/27 16:21:39;;;;;;;16.10;2.17;;;17.80;99.90;;;;;;5093128;28;20195;-76
2022/11/27 16:24:13;;;;;;;13.77;2.35;;;17.90;99.90;;;;;;5093155;28;20636;-78
2022/11/27 16:26:44;;;;;;;13.80;2.30;;;17.80;99.90;;;;;;5090583;28;20655;-77
2022/11/27 16:29:15;;;;;;;14.60;2.40;;;17.90;99.90;;;;;;5092197;28;20286;-79
2022/11/27 16:31:46;;;;;;;11.90;2.30;;;17.80;99.90;;;;;;5092452;28;20210;-82
2022/11/27 16:34:18;;;;;;;13.35;2.08;;;17.80;99.90;;;;;;5093203;28;20639;-81
2022/11/27 16:36:50;;;;;;;8.77;1.80;;;17.80;99.90;;;;;;5093685;28;20218;-81
2022/11/27 16:39:21;;;;;;;11.02;2.05;;;17.80;99.90;;;;;;5105428;28;20196;-83
2022/11/27 16:41:52;;;;;;;13.55;2.17;;;17.80;99.90;;;;;;5096921;28;20643;-80
2022/11/27 16:44:23;;;;;;;11.48;2.30;;;17.80;99.90;;;;;;5097941;28;20188;-80
2022/11/27 16:46:55;;;;;;;14.27;2.47;;;17.80;99.90;;;;;;5096887;28;20683;-77
2022/11/27 16:49:26;;;;;;;13.38;1.88;;;17.80;99.90;;;;;;5113934;28;20203;-76
2022/11/27 16:51:58;;;;;;;11.57;2.38;;;17.80;99.90;;;;;;5108246;28;20718;-76
2022/11/27 16:54:29;;;;;;;13.15;1.85;;;17.80;99.90;;;;;;5099603;27;20192;-76
2022/11/27 16:57:00;;;;;;;11.57;2.63;;;17.80;99.90;;;;;;5095745;28;20212;-75
2022/11/27 16:59:31;;;;;;;10.27;2.13;;;17.80;99.90;;;;;;5095491;28;20195;-76
2022/11/27 17:02:02;;;;;;;13.13;2.35;;;17.80;99.90;;;;;;5104629;28;20200;-76
2022/11/27 17:04:35;;;;;;;5.53;1.67;;;17.80;99.90;;;;;;5094966;28;20192;-75
2022/11/27 17:07:10;;;;;;;10.13;2.17;;;17.80;99.90;;;;;;5101360;28;20200;-75
2022/11/27 17:09:41;;;;;;;14.20;2.20;;;17.90;99.90;;;;;;5097050;28;20194;-76
2022/11/27 17:12:12;;;;;;;10.30;1.75;;;17.80;99.90;;;;;;5096590;28;20220;-75
2022/11/27 17:14:43;;;;;;;14.05;2.15;;;17.80;99.90;;;;;;5103300;28;20274;-76
2022/11/27 17:17:14;;;;;;;8.38;1.83;;;17.80;99.90;;;;;;5103057;28;20694;-75
2022/11/27 17:19:47;;;;;;;11.70;2.15;;;17.80;99.90;;;;;;5112753;28;20192;-75
2022/11/27 17:22:21;;;;;;;14.15;2.25;;;17.80;99.90;;;;;;5101198;28;20290;-76
2022/11/27 17:24:54;;;;;;;13.43;2.25;;;17.80;99.90;;;;;;5095717;28;20237;-75
2022/11/27 17:27:24;;;;;;;18.55;2.47;;;17.80;99.90;;;;;;5108085;28;20192;-76
2022/11/27 17:29:55;;;;;;;11.20;2.00;;;17.80;99.90;;;;;;5094066;28;20198;-76
2022/11/27 17:32:26;;;;;;;17.42;2.17;;;17.80;99.90;;;;;;5099270;28;20713;-76
2022/11/27 17:34:57;;;;;;;14.88;2.00;;;17.70;99.90;;;;;;5107517;28;20192;-77
2022/11/27 17:37:31;;;;;;;10.10;1.95;;;17.80;99.90;;;;;;5106276;28;20295;-78
2022/11/27 17:40:01;;;;;;;12.52;2.22;;;17.70;99.90;;;;;;5093611;28;20640;-79
2022/11/27 17:42:32;;;;;;;13.77;2.15;;;17.70;99.90;;;;;;5103238;28;20187;-79
2022/11/27 17:45:03;;;;;;;9.38;2.60;;;17.70;99.90;;;;;;5092568;28;20563;-76
2022/11/27 17:47:35;;;;;;;12.73;2.17;;;17.70;99.90;;;;;;5094991;28;20632;-77
2022/11/27 17:50:06;;;;;;;12.93;2.20;;;17.70;99.90;;;;;;5088010;28;20236;-76
2022/11/27 17:52:40;;;;;;;12.63;2.25;;;17.70;99.90;;;;;;5095530;28;20192;-75
2022/11/27 17:55:11;;;;;;;16.33;2.50;;;17.70;99.90;;;;;;5096652;28;20183;-77
2022/11/27 17:57:44;;;;;;;10.60;2.30;;;17.70;99.90;;;;;;5097476;28;20223;-77
2022/11/27 18:00:15;;;;;;;16.55;2.22;;;17.70;99.90;;;;;;5101951;28;20188;-79
2022/11/27 18:02:46;;;;;;;13.90;2.75;;;17.70;99.90;;;;;;5093574;28;20233;-77
2022/11/27 18:05:17;;;;;;;12.98;2.00;;;17.70;99.90;;;;;;5101925;28;20200;-76
2022/11/27 18:07:50;;;;;;;9.38;2.20;;;17.70;99.90;;;;;;5107936;28;20566;-76
2022/11/27 18:10:22;;;;;;;16.65;2.50;;;17.70;99.90;;;;;;5091135;28;20195;-77
2022/11/27 18:12:53;;;;;;;10.20;1.95;;;17.70;99.90;;;;;;5096897;27;20203;-76
2022/11/27 18:15:23;;;;;;;12.02;2.40;;;17.60;99.90;;;;;;5092069;28;20230;-77
2022/11/27 18:17:54;;;;;;;10.48;2.03;;;17.70;99.90;;;;;;5093546;28;20226;-76
2022/11/27 18:20:25;;;;;;;13.25;2.33;;;17.70;99.90;;;;;;5096009;28;20196;-78
2022/11/27 18:22:57;;;;;;;15.18;2.75;;;17.60;99.90;;;;;;5103711;28;20650;-76
2022/11/27 18:25:28;;;;;;;10.23;1.98;;;17.60;99.90;;;;;;5103679;28;20267;-80
2022/11/27 18:27:59;;;;;;;14.70;2.80;;;17.60;99.90;;;;;;5102951;28;20196;-76
2022/11/27 18:30:30;;;;;;;11.38;2.22;;;17.60;99.90;;;;;;5107491;27;20189;-76
2022/11/27 18:33:02;;;;;;;10.30;2.10;;;17.60;99.90;;;;;;5102738;28;20199;-76
2022/11/27 18:35:32;;;;;;;11.23;1.90;;;17.60;99.90;;;;;;5096214;28;20214;-75
2022/11/27 18:38:07;;;;;;;10.27;1.85;;;17.60;99.90;;;;;;5093459;28;20212;-76
2022/11/27 18:40:40;;;;;;;13.02;2.30;;;17.60;99.90;;;;;;5094568;28;20187;-76
2022/11/27 18:43:11;;;;;;;8.95;2.00;;;17.60;99.90;;;;;;5094704;28;20596;-76
2022/11/27 18:45:42;;;;;;;14.23;2.10;;;17.70;99.90;;;;;;5106603;28;20266;-78
2022/11/27 18:48:13;;;;;;;9.40;1.90;;;17.70;99.90;;;;;;5102825;28;20188;-76
2022/11/27 18:50:44;;;;;;;9.07;1.80;;;17.60;99.90;;;;;;5094152;28;20554;-76
2022/11/27 18:53:20;;;;;;;11.20;1.83;;;17.60;99.90;;;;;;5091390;28;20202;-76
2022/11/27 18:55:51;;;;;;;12.05;2.10;;;17.60;99.90;;;;;;5101349;28;20286;-76
2022/11/27 18:58:22;;;;;;;9.05;1.85;;;17.60;99.90;;;;;;5087373;28;20209;-76
2022/11/27 19:00:56;;;;;;;10.20;1.83;;;17.60;99.90;;;;;;5093556;28;20180;-77
2022/11/27 19:03:27;;;;;;;13.02;1.95;;;17.60;99.90;;;;;;5091595;28;20234;-77
2022/11/27 19:05:58;;;;;;;7.65;1.70;;;17.60;99.90;;;;;;5096126;28;20649;-78
2022/11/27 19:08:32;;;;;;;10.70;1.88;;;17.60;99.90;;;;;;5091755;28;20191;-77
2022/11/27 19:11:04;;;;;;;9.23;1.70;;;17.60;99.90;;;;;;5100023;28;20201;-78